Tiempo atmosférico en la estación meteorológica de Almazul, Soria (1000 m.)



Fecha
DESCASC
Temp. máxima en grados centígrados (hora)
DESCASC
Temp. mínima en grados centígrados (hora)
DESCASC
Temp. media en grados centígrados
DESCASC
Racha de viento máxima en m/sg (hora)
DESCASC
Velocidad máxima media en intervalos de 10 minutos(hora)
DESCASC
Precipitaciones diarias en mm
DESCASC
Precipitaciones de 00:00 a 06:00 en mm
DESCASC
Precipitaciones de 06:00 a 12:00 en mm
DESCASC
Precipitaciones de 12:00 a 18:00 en mm
DESCASC
Precipitaciones de 18:00 a 24:00 en mm
DESCASC
25-02-2021 14.3 (15:20) 1.5 (08:10) 7.9 6.11 (22:50) 4.72 (22:50) 0 0 0 0 0
24-02-2021 16.4 (16:50) 1.8 (07:20) 9.1 10 (18:50) 6.39 (18:40) 0.2 0 0.2 0 0
23-02-2021 12.1 (17:00) 1.8 (00:00) 7 8.06 (15:00) 5.28 (16:10) 0 0 0 0 0
22-02-2021 7.4 (00:00) 0.8 (07:20) 4.1 13.33 (02:00) 7.78 (00:10) 4 2.4 1.6 0 0
21-02-2021 9.6 (16:20) 5.1 (00:00) 7.4 16.94 (19:30) 13.33 (19:30) 0 0 0 0 0
20-02-2021 16.7 (14:40) 3.5 (00:00) 10.1 18.33 (13:20) 14.17 (13:20) 0 0 0 0 0
19-02-2021 14.9 (16:10) 2.1 (00:00) 8.5 14.72 (15:20) 10.83 (17:40) 0 0 0 0 0
18-02-2021 14.8 (14:50) 3.8 (00:00) 9.3 15 (13:30) 11.11 (12:40) 0 0 0 0 0
17-02-2021 14.3 (15:20) 4.5 (00:00) 9.4 8.06 (14:40) 5.83 (14:00) 0 0 0 0 0
16-02-2021 14.1 (16:30) 1.1 (00:00) 7.6 10 (14:10) 7.5 (14:20) 0 0 0 0 0
15-02-2021 13.4 (16:30) -0.3 (00:00) 6.5 7.78 (16:00) 5.28 (15:50) 0 0 0 0 0
14-02-2021 14.4 (15:50) 0 (00:00) 7.2 8.61 (16:20) 6.67 (20:00) 0 0 0 0 0
13-02-2021 10.4 (17:00) 1.9 (00:00) 6.1 9.17 (13:10) 6.39 (03:00) 0 0 0 0 0
12-02-2021 9.9 (17:50) 4.5 (00:00) 7.2 14.72 (16:00) 11.11 (16:30) 2.6 0 2.2 0.4 0
11-02-2021 12.4 (15:50) 2.6 (00:00) 7.5 9.72 (12:30) 6.67 (01:10) 0 0 0 0 0
10-02-2021 8.1 (16:10) 0.8 (00:00) 4.5 16.67 (10:20) 11.39 (12:30) 5 4.8 0.2 0 0
09-02-2021 7.4 (14:30) 0.5 (00:00) 4 19.72 (15:00) 13.89 (15:00) 6.2 0.4 0.8 1.6 3.4
08-02-2021 7 (15:40) 2.3 (00:00) 4.6 15.56 (13:10) 11.11 (15:50) 3.4 1.4 0 0.6 1.4
07-02-2021 6.5 (14:40) -0.5 (-00:0) 3 12.5 (16:30) 8.33 (16:30) 0 0 0 0 0
06-02-2021 9.1 (13:00) 2.5 (00:00) 5.8 12.22 (01:10) 8.33 (01:00) 7.6 0.6 0.2 6.8 0
05-02-2021 16.2 (14:40) 5.2 (00:00) 10.7 12.22 (17:50) 9.44 (17:50) 0 0 0 0 0
04-02-2021 15.3 (16:10) 6.2 (00:00) 10.8 10.56 (16:40) 8.61 (03:10) 0 0 0 0 0
03-02-2021 10.6 (14:00) 5.4 (00:00) 8 15.28 (01:40) 10.56 (01:20) 0 0 0 0 0
02-02-2021 12.2 (15:50) 6.9 (19:50) 9.5 12.78 (22:50) 8.89 (23:50) 0 0 0 0 0
01-02-2021 11.3 (15:50) 6.5 (00:00) 8.9 21.39 (10:10) 15 (09:40) 0 0 0 0 0
31-01-2021 10 (20:30) 3.7 (00:00) 6.9 17.5 (21:50) 12.22 (00:10) 0 0 0 0 0
30-01-2021 8.6 (14:40) 3.7 (00:00) 6.2 21.67 (12:40) 14.17 (11:30) 3.6 0 2.2 0.6 0.8

Gráficas

Temp. máximas Temp. mínimas Temp. medias Precipitaciones Rachas de viento máximas Velocidades máximas media en intervalos de 10 minutos

Datos horarios

Fecha y hora oficial Temperatura (ºC) Velocidad del viento (km/h) Dirección del viento Racha (km/h) Dirección de racha Precipitación (mm) Presión (hPa) Tendencia (hPa) Humedad (%)
2021-02-28 23:00:00 5 18 Sur 40 Sudeste 0 -- -- 85
2021-02-28 22:00:00 6 21 Sur 39 Sur 0 -- -- 80
2021-02-28 21:00:00 7.2 31 Sur 39 Sur 0 -- -- 76
2021-02-28 20:00:00 6.9 22 Sudeste 37 Sudeste 0 -- -- 85
2021-02-28 19:00:00 6.8 28 Sudeste 42 Sudeste 0 -- -- 85
2021-02-28 18:00:00 7 26 Sudeste 38 Sudeste 0 -- -- 80
2021-02-28 17:00:00 6.9 26 Sudeste 41 Sudeste 0 -- -- 78
2021-02-28 16:00:00 7.6 26 Sudeste 33 Sudeste 0 -- -- 71
2021-02-28 15:00:00 8.6 21 Sudeste 31 Sur 0 -- -- 67
2021-02-28 14:00:00 9.4 18 Sur 30 Sur 0 -- -- 59
2021-02-28 13:00:00 8.4 15 Sur 28 Sur 0 -- -- 64
2021-02-28 12:00:00 8.1 18 Sur 27 Sur 0 -- -- 71
2021-02-28 11:00:00 6.3 14 Sur 24 Sur 0 -- -- 75
2021-02-28 10:00:00 4.3 8 Sudeste 12 Sudeste 0 -- -- 79
2021-02-28 09:00:00 1.9 0 Calma 8 Sur 0 -- -- 87
2021-02-28 08:00:00 0.1 5 Sudeste 8 Sudeste 0 -- -- 93
2021-02-28 07:00:00 0.5 6 Sudeste 8 Sudeste 0 -- -- 89
2021-02-28 06:00:00 0.1 4 Sudeste 8 Sur 0 -- -- 89
2021-02-28 05:00:00 1 7 Norte 15 Nordeste 0 -- -- 86
2021-02-28 04:00:00 2.6 13 Nordeste 21 Nordeste 0 -- -- 80
2021-02-28 03:00:00 1.7 9 Nordeste 16 Este 0 -- -- 80
2021-02-28 02:00:00 1.6 6 Nordeste 10 Nordeste 0 -- -- 77
2021-02-28 01:00:00 2.7 9 Nordeste 22 Nordeste 0 -- -- 72
2021-02-28 00:00:00 4.2 22 Nordeste 32 Nordeste 0 -- -- 65
2021-02-27 23:00:00 3.9 17 Nordeste 21 Nordeste 0 -- -- 68
2021-02-27 22:00:00 4.4 14 Nordeste 24 Norte 0 -- -- 68
2021-02-27 21:00:00 5.6 14 Norte 19 Norte 0 -- -- 65
2021-02-27 20:00:00 6.8 4 Norte 26 Nordeste 0 -- -- 62
2021-02-27 19:00:00 8.3 17 Nordeste 31 Nordeste 0 -- -- 57
2021-02-27 18:00:00 11 24 Nordeste 31 Nordeste 0 -- -- 50
2021-02-27 17:00:00 12.7 24 Nordeste 34 Nordeste 0 -- -- 49
2021-02-27 16:00:00 14.3 16 Nordeste 28 Nordeste 0 -- -- 40
2021-02-27 15:00:00 14 17 Nordeste 26 Nordeste 0 -- -- 43
2021-02-27 14:00:00 12.8 16 Nordeste 24 Nordeste 0 -- -- 53
2021-02-27 13:00:00 12.1 7 Sudeste 23 Nordeste 0 -- -- 67
2021-02-27 12:00:00 10.6 20 Nordeste 35 Nordeste 0 -- -- 62
2021-02-27 11:00:00 9.3 22 Nordeste 31 Nordeste 0 -- -- 67
2021-02-27 10:00:00 9.8 0 Calma 4 Nordeste 0 -- -- 69
2021-02-27 09:00:00 3.7 5 Norte 9 Norte 0 -- -- 88
2021-02-27 08:00:00 1.2 5 Norte 9 Norte 0 -- -- 95
2021-02-27 07:00:00 1.1 3 Norte 7 Norte 0 -- -- 95
2021-02-27 06:00:00 2 3 Norte 15 Nordeste 0 -- -- 95
2021-02-27 05:00:00 1.9 6 Norte 10 Norte 0 -- -- 96
2021-02-27 04:00:00 1.4 2 Noroeste 10 Norte 0 -- -- 92
2021-02-27 03:00:00 2.7 0 Calma 6 Este 0 -- -- 92
2021-02-27 02:00:00 3.5 3 Este 8 Norte 0 -- -- 93
2021-02-27 01:00:00 4.3 5 Nordeste 8 Nordeste 0 -- -- 92
2021-02-27 00:00:00 5 0 Calma 10 Norte 0 -- -- 93
2021-02-26 23:00:00 5.7 6 Norte 8 Norte 0 -- -- 92
2021-02-26 22:00:00 6.3 5 Nordeste 12 Nordeste 0 -- -- 91
2021-02-26 21:00:00 6.6 8 Nordeste 13 Este 0 -- -- 88
2021-02-26 20:00:00 8.4 13 Este 21 Este 0 -- -- 83
2021-02-26 19:00:00 9.7 15 Este 21 Este 0 -- -- 77
2021-02-26 18:00:00 11.9 17 Nordeste 23 Nordeste 0 -- -- 65
2021-02-26 17:00:00 14.7 3 Norte 8 Sudoeste 0 -- -- 46
2021-02-26 16:00:00 16.6 5 Sudoeste 14 Sudoeste 0 -- -- 43
2021-02-26 15:00:00 15.7 5 Sudoeste 16 Sur 0 -- -- 48
2021-02-26 14:00:00 12.6 11 Sur 17 Sur 0 -- -- 65
2021-02-26 13:00:00 11.4 14 Sur 25 Sur 0 -- -- 68
2021-02-26 12:00:00 10.9 5 Sudoeste 16 Sur 0 -- -- 72
2021-02-26 11:00:00 8.6 9 Sudeste 15 Sur 0 -- -- 81
2021-02-26 10:00:00 7.3 7 Sur 18 Sudeste 0 -- -- 88
2021-02-26 09:00:00 6.2 6 Oeste 18 Sudeste 0 -- -- 93
2021-02-26 08:00:00 6.1 13 Sudeste 19 Sudeste 0 -- -- 93
2021-02-26 07:00:00 5.8 6 Sudeste 21 Sudeste 0 -- -- 95
2021-02-26 06:00:00 5.7 11 Este 19 Este 0 -- -- 96
2021-02-26 05:00:00 5.4 11 Este 16 Este 0 -- -- 96
2021-02-26 04:00:00 5.5 3 Norte 18 Este 0 -- -- 95
2021-02-26 03:00:00 6 12 Sudeste 17 Este 0 -- -- 93
2021-02-26 02:00:00 6.5 11 Sudeste 14 Este 0 -- -- 89
2021-02-26 01:00:00 6.9 5 Sur 20 Sudeste 0 -- -- 80
2021-02-26 00:00:00 7.1 7 Sudeste 17 Sudeste 0 -- -- 73
2021-02-25 23:00:00 7.8 12 Sudeste 22 Sudeste 0 -- -- 68
2021-02-25 22:00:00 8.4 12 Sudeste 15 Sudeste 0 -- -- 64
2021-02-25 21:00:00 7.8 8 Sudeste 19 Sudeste 0 -- -- 78
2021-02-25 20:00:00 8.3 11 Sudeste 19 Este 0 -- -- 76
2021-02-25 19:00:00 9.4 13 Este 18 Sudeste 0 -- -- 71
2021-02-25 18:00:00 10.7 14 Sudeste 18 Sudeste 0 -- -- 62
2021-02-25 17:00:00 12.7 12 Sur 16 Sur 0 -- -- 53
2021-02-25 16:00:00 13.8 11 Sur 17 Sur 0 -- -- 46
2021-02-25 15:00:00 14.2 8 Sur 19 Sudoeste 0 -- -- 44
2021-02-25 14:00:00 13.3 10 Sur 15 Sur 0 -- -- 46
2021-02-25 13:00:00 12.3 3 Oeste 13 Sur 0 -- -- 53
2021-02-25 12:00:00 10.7 4 Sudoeste 9 Sudoeste 0 -- -- 54
2021-02-25 11:00:00 9.1 0 Calma 6 Sur 0 -- -- 74
2021-02-25 10:00:00 6.7 2 Sur 14 Sudeste 0 -- -- 80
2021-02-25 09:00:00 3.8 14 Sudeste 17 Sudeste 0 -- -- 94
2021-02-25 08:00:00 1.8 3 Nordeste 8 Sudeste 0 -- -- 96
2021-02-25 07:00:00 2.6 5 Sudeste 6 Sudeste 0 -- -- 96
2021-02-25 06:00:00 2.6 0 Calma 9 Sudeste 0 -- -- 96
2021-02-25 05:00:00 3.5 5 Sudeste 10 Sudeste 0 -- -- 96
2021-02-25 04:00:00 3.9 9 Sudeste 12 Sudeste 0 -- -- 99
2021-02-25 03:00:00 4.3 2 Sudeste 9 Sudeste 0 -- -- 97
2021-02-25 02:00:00 5.2 5 Sudeste 11 Sur 0 -- -- 97
2021-02-25 01:00:00 6.1 7 Sur 9 Sur 0 -- -- 95
2021-02-25 00:00:00 6.6 0 Calma 6 Sudeste 0 -- -- 96
2021-02-24 23:00:00 7.6 5 Sur 22 Sur 0 -- -- 92
2021-02-24 22:00:00 8.9 15 Sudeste 20 Sudeste 0 -- -- 88
2021-02-24 21:00:00 9.8 10 Sur 22 Sudeste 0 -- -- 84
2021-02-24 20:00:00 9.7 6 Sur 31 Sudeste 0 -- -- 85
2021-02-24 19:00:00 10.3 22 Sudeste 36 Sudeste 0 -- -- 80
2021-02-24 18:00:00 15.1 16 Sur 23 Sudoeste 0 -- -- 53
2021-02-24 17:00:00 15.9 19 Sur 32 Sur 0 -- -- 46
2021-02-24 16:00:00 15.5 19 Sudoeste 31 Sudoeste 0 -- -- 48
2021-02-24 15:00:00 15.1 21 Sudoeste 31 Sudoeste 0 -- -- 53
2021-02-24 14:00:00 13.5 20 Sudoeste 27 Sudoeste 0 -- -- 57
2021-02-24 13:00:00 12.1 14 Sur 23 Sudeste 0 -- -- 65
2021-02-24 12:00:00 10.4 15 Sur 19 Sur 0 -- -- 68
2021-02-24 11:00:00 8.5 13 Sur 16 Sur 0 -- -- 79
2021-02-24 10:00:00 7.2 0 Calma 8 Este 0 -- -- 83
2021-02-24 09:00:00 3 6 Nordeste 10 Nordeste 0.2 -- -- 93
2021-02-24 08:00:00 1.9 3 Norte 5 Norte 0 -- -- 97
2021-02-24 07:00:00 2.7 5 Sudeste 6 Sudeste 0 -- -- 95
2021-02-24 06:00:00 2.4 3 Sur 6 Sudeste 0 -- -- 96
2021-02-24 05:00:00 2.6 3 Sur 8 Sur 0 -- -- 98
2021-02-24 04:00:00 3.3 5 Sur 9 Sur 0 -- -- 97
2021-02-24 03:00:00 3.8 6 Sudeste 8 Sudeste 0 -- -- 96
2021-02-24 02:00:00 4.1 6 Sudeste 8 Sudeste 0 -- -- 94
2021-02-24 01:00:00 3.8 2 Noroeste 4 Sudeste 0 -- -- 95
2021-02-24 00:00:00 4.9 3 Sudeste 14 Sudeste 0 -- -- 92
2021-02-23 23:00:00 5.9 11 Sudeste 21 Sudeste 0 -- -- 89
2021-02-23 22:00:00 6.1 13 Sudeste 18 Sudeste 0 -- -- 89
2021-02-23 21:00:00 6.5 9 Este 21 Este 0 -- -- 85
2021-02-23 20:00:00 7.1 16 Este 21 Este 0 -- -- 81
2021-02-23 19:00:00 9.1 9 Sudeste 17 Sur 0 -- -- 70
2021-02-23 18:00:00 11.4 13 Sur 21 Sur 0 -- -- 61
2021-02-23 17:00:00 12.1 13 Sur 26 Sur 0 -- -- 61
2021-02-23 16:00:00 11.7 17 Sur 27 Sur 0 -- -- 63
2021-02-23 15:00:00 10.7 17 Sur 29 Sur 0 -- -- 67
2021-02-23 14:00:00 9.4 14 Sur 26 Sur 0 -- -- 71
2021-02-23 13:00:00 7.3 14 Sur 21 Sur 0 -- -- 76
2021-02-23 12:00:00 6.2 9 Sur 20 Sudeste 0 -- -- 78
2021-02-23 11:00:00 4.5 12 Sur 20 Sur 0 -- -- 87
2021-02-23 10:00:00 3.8 12 Sur 19 Sur 0 -- -- 88
2021-02-23 09:00:00 3.7 10 Sur 15 Sur 0 -- -- 87
2021-02-23 08:00:00 3.4 12 Sur 16 Sudeste 0 -- -- 88
2021-02-23 07:00:00 3.4 11 Sur 17 Sur 0 -- -- 91
2021-02-23 06:00:00 3.1 4 Sur 6 Sur 0 -- -- 97
2021-02-23 05:00:00 3.3 5 Sur 10 Sudeste 0 -- -- 95
2021-02-23 04:00:00 3.1 0 Calma 4 Sudeste 0 -- -- 96
2021-02-23 03:00:00 3.2 4 Sudeste 6 Sudeste 0 -- -- 95
2021-02-23 02:00:00 3.2 3 Oeste 6 Sudeste 0 -- -- 94
2021-02-23 01:00:00 3 2 Sudeste 10 Nordeste 0 -- -- 95
2021-02-23 00:00:00 1.8 7 Nordeste 19 Nordeste 0 -- -- 95
2021-02-22 23:00:00 3.3 12 Nordeste 18 Nordeste 0 -- -- 93
2021-02-22 22:00:00 3.2 10 Nordeste 14 Nordeste 0 -- -- 93
2021-02-22 21:00:00 4 10 Norte 16 Norte 0 -- -- 91
2021-02-22 20:00:00 3.8 12 Norte 20 Norte 0 -- -- 94
2021-02-22 19:00:00 4 17 Nordeste 23 Nordeste 0 -- -- 91
2021-02-22 18:00:00 4.3 16 Nordeste 25 Nordeste 0 -- -- 89
2021-02-22 17:00:00 4.6 23 Nordeste 28 Nordeste 0 -- -- 88
2021-02-22 16:00:00 4.7 18 Nordeste 35 Norte 0 -- -- 88
2021-02-22 15:00:00 5.2 18 Norte 39 Norte 0 -- -- 83
2021-02-22 14:00:00 4.7 24 Norte 34 Norte 0 -- -- 89
2021-02-22 13:00:00 3.1 18 Norte 26 Noroeste 0 -- -- 93
2021-02-22 12:00:00 2.9 18 Norte 25 Norte 0 -- -- 93
2021-02-22 11:00:00 2.1 15 Norte 22 Norte 0.4 -- -- 95
2021-02-22 10:00:00 1.8 12 Norte 20 Norte 0.6 -- -- 97
2021-02-22 09:00:00 1.7 13 Norte 23 Norte 0.2 -- -- 95
2021-02-22 08:00:00 1.1 14 Norte 35 Noroeste 0.2 -- -- 96
2021-02-22 07:00:00 0.9 24 Noroeste 35 Noroeste 0.2 -- -- 95
2021-02-22 06:00:00 1.4 22 Noroeste 37 Noroeste 0 -- -- 94
2021-02-22 05:00:00 1.4 23 Noroeste 38 Noroeste 0 -- -- 94
2021-02-22 04:00:00 1.6 23 Noroeste 40 Oeste 0.6 -- -- 94
2021-02-22 03:00:00 2.1 20 Oeste 42 Noroeste 1.4 -- -- 94
2021-02-22 02:00:00 2.9 21 Noroeste 48 Noroeste 0.4 -- -- 92
2021-02-22 01:00:00 7.1 23 Sudeste 36 Sudeste 0 -- -- 93
2021-02-22 00:00:00 7.4 29 Sudeste 37 Sudeste 0 -- -- 90
2021-02-21 23:00:00 7.5 23 Sudeste 44 Sudeste 0 -- -- 88
2021-02-21 22:00:00 7.1 33 Sudeste 50 Sudeste 0 -- -- 91
2021-02-21 21:00:00 7.1 36 Sudeste 51 Sudeste 0 -- -- 90
2021-02-21 20:00:00 7.3 38 Sudeste 61 Sudeste 0 -- -- 90
2021-02-21 19:00:00 7.5 39 Sudeste 52 Sudeste 0 -- -- 88
2021-02-21 18:00:00 8 43 Sudeste 58 Sudeste 0 -- -- 87
2021-02-21 17:00:00 8.8 37 Sudeste 53 Sudeste 0 -- -- 83
2021-02-21 16:00:00 9.4 30 Sudeste 48 Este 0 -- -- 78
2021-02-21 15:00:00 8.5 30 Sudeste 45 Sudeste 0 -- -- 81
2021-02-21 14:00:00 9 33 Sudeste 45 Sudeste 0 -- -- 75
2021-02-21 13:00:00 8.2 25 Sudeste 42 Sudeste 0 -- -- 76
2021-02-21 12:00:00 6.9 25 Sudeste 39 Sudeste 0 -- -- 80
2021-02-21 11:00:00 6.6 31 Sudeste 41 Sudeste 0 -- -- 78
2021-02-21 10:00:00 5.8 23 Sudeste 53 Sudeste 0 -- -- 80
2021-02-21 09:00:00 5.3 21 Sudeste 45 Este 0 -- -- 80
2021-02-21 08:00:00 5.5 25 Sudeste 43 Sudeste 0 -- -- 78
2021-02-21 07:00:00 5.6 33 Sudeste 53 Sudeste 0 -- -- 77
2021-02-21 06:00:00 6.2 32 Sudeste 43 Sudeste 0 -- -- 73
2021-02-21 05:00:00 7 19 Sur 38 Sur 0 -- -- 68
2021-02-21 04:00:00 7.4 27 Sur 43 Sur 0 -- -- 68
2021-02-21 03:00:00 8.3 24 Sur 38 Sur 0 -- -- 62
2021-02-21 02:00:00 8 12 Sur 36 Sur 0 -- -- 62
2021-02-21 01:00:00 8 16 Sur 21 Sur 0 -- -- 62
2021-02-21 00:00:00 8.1 15 Sur 27 Sur 0 -- -- 62
2021-02-20 23:00:00 9.5 24 Sur 32 Sur 0 -- -- 52
2021-02-20 22:00:00 10.5 25 Sur 33 Sudoeste 0 -- -- 47
2021-02-20 21:00:00 11.5 21 Sur 27 Sur 0 -- -- 41
2021-02-20 20:00:00 12.7 18 Sudoeste 43 Sudoeste 0 -- -- 39
2021-02-20 19:00:00 12.7 19 Sur 30 Sudoeste 0 -- -- 39
2021-02-20 18:00:00 12.7 11 Sudoeste 22 Sudoeste 0 -- -- 41
2021-02-20 17:00:00 14.2 21 Sudoeste 32 Sudoeste 0 -- -- 33
2021-02-20 16:00:00 14.9 19 Sudoeste 48 Sudoeste 0 -- -- 34
2021-02-20 15:00:00 14.9 32 Sudoeste 57 Oeste 0 -- -- 32
2021-02-20 14:00:00 16.2 44 Sudoeste 66 Sudoeste 0 -- -- 32
2021-02-20 13:00:00 15.2 41 Sudoeste 58 Sudoeste 0 -- -- 36
2021-02-20 12:00:00 14.4 28 Sudoeste 47 Sur 0 -- -- 41
2021-02-20 11:00:00 12.5 22 Sur 32 Sur 0 -- -- 45
2021-02-20 10:00:00 8 18 Sur 22 Sur 0 -- -- 61
2021-02-20 09:00:00 6 19 Sur 22 Sur 0 -- -- 65
2021-02-20 08:00:00 5 7 Sur 15 Sur 0 -- -- 65
2021-02-20 07:00:00 3.5 10 Sudoeste 22 Sur 0 -- -- 69
2021-02-20 06:00:00 4.7 8 Sur 15 Sur 0 -- -- 61
2021-02-20 05:00:00 5.1 12 Sur 18 Sur 0 -- -- 59
2021-02-20 04:00:00 5 12 Sur 20 Sur 0 -- -- 60
2021-02-20 03:00:00 4.8 14 Sur 21 Sur 0 -- -- 61
2021-02-20 02:00:00 4.8 10 Sur 14 Sur 0 -- -- 63
2021-02-20 01:00:00 6.1 10 Sur 18 Sur 0 -- -- 58
2021-02-20 00:00:00 6.6 13 Sur 22 Sur 0 -- -- 58
2021-02-19 23:00:00 6.6 3 Oeste 10 Sudoeste 0 -- -- 57
2021-02-19 22:00:00 7.5 8 Sur 9 Sur 0 -- -- 55
2021-02-19 21:00:00 8.6 6 Sur 11 Sudoeste 0 -- -- 52
2021-02-19 20:00:00 9.5 8 Sudoeste 20 Sudoeste 0 -- -- 48
2021-02-19 19:00:00 10.9 15 Oeste 44 Sudoeste 0 -- -- 44
2021-02-19 18:00:00 13.6 32 Oeste 53 Oeste 0 -- -- 34
2021-02-19 17:00:00 14.7 35 Oeste 50 Oeste 0 -- -- 35
2021-02-19 16:00:00 14.8 36 Oeste 53 Oeste 0 -- -- 35
2021-02-19 15:00:00 14.8 31 Oeste 52 Sudoeste 0 -- -- 39
2021-02-19 14:00:00 14 35 Oeste 51 Sudoeste 0 -- -- 40
2021-02-19 13:00:00 12.9 22 Sudoeste 37 Sudoeste 0 -- -- 53
2021-02-19 12:00:00 11.1 24 Sudoeste 35 Sudoeste 0 -- -- 59
2021-02-19 11:00:00 9.6 24 Sudoeste 33 Sudoeste 0 -- -- 64
2021-02-19 10:00:00 7.6 19 Sur 25 Sur 0 -- -- 74
2021-02-19 09:00:00 4 9 Sur 14 Sur 0 -- -- 79
2021-02-19 08:00:00 2.4 10 Sur 16 Sur 0 -- -- 83
2021-02-19 07:00:00 2.5 10 Sur 15 Sur 0 -- -- 80
2021-02-19 06:00:00 3.7 10 Sur 15 Sur 0 -- -- 76
2021-02-19 05:00:00 4.9 7 Sur 18 Sudeste 0 -- -- 71
2021-02-19 04:00:00 4.9 11 Sudeste 15 Sudeste 0 -- -- 71
2021-02-19 03:00:00 3.9 4 Sur 10 Sur 0 -- -- 72
2021-02-19 02:00:00 4.9 8 Sur 12 Sudeste 0 -- -- 66
2021-02-19 01:00:00 5.7 3 Sur 12 Sudoeste 0 -- -- 63
2021-02-19 00:00:00 6.3 6 Sudoeste 14 Sudeste 0 -- -- 61
2021-02-18 23:00:00 6.5 6 Sudeste 17 Sudoeste 0 -- -- 65
2021-02-18 22:00:00 8.5 17 Sudoeste 24 Sudoeste 0 -- -- 58
2021-02-18 21:00:00 7.8 8 Sudoeste 27 Oeste 0 -- -- 63
2021-02-18 20:00:00 10.2 17 Oeste 31 Oeste 0 -- -- 57
2021-02-18 19:00:00 10.9 20 Oeste 31 Sudoeste 0 -- -- 57
2021-02-18 18:00:00 12.4 22 Sudoeste 34 Oeste 0 -- -- 49
2021-02-18 17:00:00 13.7 25 Sudoeste 40 Sudoeste 0 -- -- 44
2021-02-18 16:00:00 14.6 30 Sudoeste 46 Oeste 0 -- -- 40
2021-02-18 15:00:00 14.1 30 Oeste 43 Oeste 0 -- -- 42
2021-02-18 14:00:00 13.9 35 Oeste 54 Oeste 0 -- -- 42
2021-02-18 13:00:00 13.9 32 Oeste 51 Sudoeste 0 -- -- 44
2021-02-18 12:00:00 12.1 32 Sudoeste 44 Sudoeste 0 -- -- 51
2021-02-18 11:00:00 9.7 26 Sudoeste 33 Sudoeste 0 -- -- 65
2021-02-18 10:00:00 8.8 31 Sudoeste 37 Sudoeste 0 -- -- 65
2021-02-18 09:00:00 7.2 26 Sudoeste 31 Sudoeste 0 -- -- 69
2021-02-18 08:00:00 5.5 21 Sudoeste 28 Sudoeste 0 -- -- 74
2021-02-18 07:00:00 5.5 15 Sudoeste 21 Sudoeste 0 -- -- 75
2021-02-18 06:00:00 4 9 Sudeste 24 Sudeste 0 -- -- 81
2021-02-18 05:00:00 4.9 11 Sudeste 17 Sudeste 0 -- -- 78
2021-02-18 04:00:00 5.6 8 Sudeste 12 Sudeste 0 -- -- 77
2021-02-18 03:00:00 5.8 9 Sudeste 18 Sudeste 0 -- -- 76
2021-02-18 02:00:00 6.4 14 Sudeste 21 Sudeste 0 -- -- 74
2021-02-18 01:00:00 5.9 15 Sur 21 Sur 0 -- -- 74
2021-02-18 00:00:00 5.9 17 Sur 22 Sudoeste 0 -- -- 73
2021-02-17 23:00:00 6.5 11 Sur 19 Sur 0 -- -- 70
2021-02-17 22:00:00 7 18 Sur 25 Sur 0 -- -- 68
2021-02-17 21:00:00 8.4 13 Sur 21 Sur 0 -- -- 63
2021-02-17 20:00:00 10 11 Sudeste 17 Sur 0 -- -- 62
2021-02-17 19:00:00 10.9 11 Sudoeste 19 Sudoeste 0 -- -- 64
2021-02-17 18:00:00 12.2 9 Oeste 27 Sudoeste 0 -- -- 63
2021-02-17 17:00:00 13.1 17 Sudoeste 25 Oeste 0 -- -- 58
2021-02-17 16:00:00 13.7 18 Sudoeste 29 Oeste 0 -- -- 57
2021-02-17 15:00:00 13 19 Oeste 29 Oeste 0 -- -- 59
2021-02-17 14:00:00 12.4 21 Sudoeste 29 Sudoeste 0 -- -- 64
2021-02-17 13:00:00 11.5 9 Sur 19 Sudoeste 0 -- -- 70
2021-02-17 12:00:00 9.8 12 Sudoeste 18 Sudoeste 0 -- -- 74
2021-02-17 11:00:00 9.6 11 Sudoeste 15 Sudoeste 0 -- -- 75
2021-02-17 10:00:00 6.7 8 Sudeste 10 Sur 0 -- -- 84
2021-02-17 09:00:00 4.8 8 Sur 10 Sur 0 -- -- 92
2021-02-17 08:00:00 4.8 4 Sur 8 Sur 0 -- -- 90
2021-02-17 07:00:00 5.1 5 Sur 8 Sur 0 -- -- 91
2021-02-17 06:00:00 5.1 6 Sur 12 Sudeste 0 -- -- 92
2021-02-17 05:00:00 4.8 6 Sudeste 11 Sur 0 -- -- 92
2021-02-17 04:00:00 4.8 8 Sur 11 Sur 0 -- -- 92
2021-02-17 03:00:00 4.9 8 Sudeste 14 Sur 0 -- -- 92
2021-02-17 02:00:00 5.8 3 Sur 5 Sur 0 -- -- 88
2021-02-17 01:00:00 6.2 3 Sudoeste 10 Noroeste 0 -- -- 86
2021-02-17 00:00:00 6.7 3 Noroeste 15 Oeste 0 -- -- 85
2021-02-16 23:00:00 7.4 12 Oeste 16 Oeste 0 -- -- 82
2021-02-16 22:00:00 7.6 10 Oeste 14 Oeste 0 -- -- 79
2021-02-16 21:00:00 8 11 Oeste 21 Oeste 0 -- -- 79
2021-02-16 20:00:00 8.9 15 Oeste 22 Oeste 0 -- -- 77
2021-02-16 19:00:00 9.8 13 Oeste 24 Oeste 0 -- -- 71
2021-02-16 18:00:00 11.5 17 Oeste 28 Oeste 0 -- -- 65
2021-02-16 17:00:00 13.4 19 Oeste 32 Sudoeste 0 -- -- 57
2021-02-16 16:00:00 13.1 22 Oeste 32 Sudoeste 0 -- -- 58
2021-02-16 15:00:00 13.7 23 Oeste 36 Oeste 0 -- -- 56
2021-02-16 14:00:00 13.7 22 Sudoeste 32 Oeste 0 -- -- 56
2021-02-16 13:00:00 11.1 8 Sur 28 Sudoeste 0 -- -- 70
2021-02-16 12:00:00 9.7 18 Sur 32 Sur 0 -- -- 74
2021-02-16 11:00:00 8 18 Sur 27 Sur 0 -- -- 80
2021-02-16 10:00:00 4.4 8 Sur 13 Sudeste 0 -- -- 87
2021-02-16 09:00:00 2.6 4 Sudeste 9 Sur 0 -- -- 94
2021-02-16 08:00:00 1.3 0 Calma 5 Sudeste 0 -- -- 98
2021-02-16 07:00:00 1.3 3 Sudeste 5 Este 0 -- -- 96
2021-02-16 06:00:00 1.7 3 Este 6 Sudeste 0 -- -- 93
2021-02-16 05:00:00 3 4 Sudeste 7 Este 0 -- -- 91
2021-02-16 04:00:00 2.5 0 Calma 9 Sur 0 -- -- 90
2021-02-16 03:00:00 4 5 Sur 8 Sudeste 0 -- -- 89
2021-02-16 02:00:00 3.3 3 Sur 11 Sur 0 -- -- 92
2021-02-16 01:00:00 4.1 6 Sur 15 Sur 0 -- -- 93
2021-02-16 00:00:00 4.4 10 Sur 14 Sur 0 -- -- 94
2021-02-15 23:00:00 4.7 10 Sudeste 17 Sudeste 0 -- -- 93
2021-02-15 22:00:00 5 2 Sur 15 Sur 0 -- -- 94
2021-02-15 21:00:00 6 7 Sur 12 Sur 0 -- -- 89
2021-02-15 20:00:00 7.4 8 Sur 12 Sur 0 -- -- 86
2021-02-15 19:00:00 9.3 5 Sur 14 Sur 0 -- -- 78
2021-02-15 18:00:00 12 11 Sur 22 Sudoeste 0 -- -- 69
2021-02-15 17:00:00 13 13 Sur 24 Sur 0 -- -- 65
2021-02-15 16:00:00 13.1 19 Sudoeste 28 Sudoeste 0 -- -- 63
2021-02-15 15:00:00 10.8 9 Sudeste 15 Sudeste 0 -- -- 71
2021-02-15 14:00:00 9 5 Sur 14 Sur 0 -- -- 75
2021-02-15 13:00:00 6.9 8 Sudoeste 18 Sudoeste 0 -- -- 85
2021-02-15 12:00:00 5.8 12 Sur 18 Sur 0 -- -- 97
2021-02-15 11:00:00 4.7 10 Sur 15 Sur 0 -- -- 99
2021-02-15 10:00:00 3.3 8 Sur 12 Sur 0 -- -- 100
2021-02-15 09:00:00 1.8 0 Calma 3 Norte 0 -- -- 100
2021-02-15 08:00:00 0.4 0 Calma 4 Sudeste 0 -- -- 100
2021-02-15 07:00:00 1.2 0 Calma 6 Norte 0 -- -- 100
2021-02-15 06:00:00 0.5 0 Calma 3 Norte 0 -- -- 99
2021-02-15 05:00:00 1.7 0 Calma 7 Sudeste 0 -- -- 99
2021-02-15 04:00:00 2.8 5 Sur 10 Sudeste 0 -- -- 99
2021-02-15 03:00:00 2.6 6 Sudeste 9 Sudeste 0 -- -- 98
2021-02-15 02:00:00 2.9 4 Sudeste 12 Sudeste 0 -- -- 98
2021-02-15 01:00:00 4 9 Sudeste 13 Sudeste 0 -- -- 98
2021-02-15 00:00:00 4.3 4 Sudeste 13 Sudeste 0 -- -- 97
2021-02-14 23:00:00 5.1 13 Sudeste 23 Sudeste 0 -- -- 96
2021-02-14 22:00:00 5.4 17 Sudeste 30 Sudeste 0 -- -- 95
2021-02-14 21:00:00 5.9 19 Sudeste 31 Sudeste 0 -- -- 92
2021-02-14 20:00:00 6.9 24 Sudeste 31 Sudeste 0 -- -- 88
2021-02-14 19:00:00 8.4 17 Sudeste 26 Este 0 -- -- 79
2021-02-14 18:00:00 10 15 Sudeste 20 Este 0 -- -- 75
2021-02-14 17:00:00 12.8 15 Sur 31 Sudoeste 0 -- -- 62
2021-02-14 16:00:00 14.2 19 Sudoeste 27 Sur 0 -- -- 54
2021-02-14 15:00:00 13.1 15 Sudoeste 27 Sur 0 -- -- 58
2021-02-14 14:00:00 12.3 14 Sudoeste 24 Sudoeste 0 -- -- 59
2021-02-14 13:00:00 11.2 9 Sur 18 Sur 0 -- -- 70
2021-02-14 12:00:00 10.2 7 Sur 10 Sur 0 -- -- 74
2021-02-14 11:00:00 8.1 6 Sur 10 Sur 0 -- -- 77
2021-02-14 10:00:00 7 0 Calma 5 Noroeste 0 -- -- 79
2021-02-14 09:00:00 2.3 0 Calma 8 Norte 0 -- -- 91
2021-02-14 08:00:00 0.2 6 Norte 10 Nordeste 0 -- -- 97
2021-02-14 07:00:00 0.7 4 Nordeste 8 Norte 0 -- -- 97
2021-02-14 06:00:00 1.1 2 Norte 6 Este 0 -- -- 97
2021-02-14 05:00:00 0.8 2 Este 12 Este 0 -- -- 94
2021-02-14 04:00:00 1.6 0 Calma 14 Sur 0 -- -- 97
2021-02-14 03:00:00 1.8 6 Norte 8 Nordeste 0 -- -- 96
2021-02-14 02:00:00 2.6 6 Nordeste 18 Norte 0 -- -- 93
2021-02-14 01:00:00 4.3 14 Norte 23 Noroeste 0 -- -- 88
2021-02-14 00:00:00 4 6 Norte 14 Norte 0 -- -- 90
2021-02-13 23:00:00 6.4 12 Norte 18 Norte 0 -- -- 82
2021-02-13 22:00:00 6.2 10 Norte 17 Norte 0 -- -- 85
2021-02-13 21:00:00 7 13 Nordeste 15 Norte 0 -- -- 77
2021-02-13 20:00:00 7.2 9 Nordeste 22 Noroeste 0 -- -- 74
2021-02-13 19:00:00 7.9 18 Noroeste 28 Noroeste 0 -- -- 78
2021-02-13 18:00:00 9 21 Noroeste 29 Noroeste 0 -- -- 72
2021-02-13 17:00:00 10.4 21 Noroeste 27 Noroeste 0 -- -- 64
2021-02-13 16:00:00 8.5 17 Noroeste 27 Noroeste 0 -- -- 69
2021-02-13 15:00:00 8.1 17 Noroeste 33 Noroeste 0 -- -- 68
2021-02-13 14:00:00 7.4 17 Noroeste 33 Noroeste 0 -- -- 77
2021-02-13 13:00:00 6.8 18 Noroeste 31 Noroeste 0 -- -- 81
2021-02-13 08:00:00 -- -- -- -- -- -- -- -- --
2021-02-13 07:00:00 -- -- -- -- -- -- -- -- --
2021-02-13 06:00:00 2.5 7 Noroeste 14 Norte 0 -- -- 97
2021-02-13 05:00:00 2.8 3 Norte 11 Oeste 0 -- -- 94
2021-02-13 04:00:00 2.1 6 Sudeste 25 Norte 0 -- -- 91
2021-02-13 03:00:00 3.4 23 Norte 32 Norte 0 -- -- 88
2021-02-13 02:00:00 3.4 15 Norte 19 Norte 0 -- -- 88
2021-02-13 01:00:00 3.8 4 Norte 24 Nordeste 0 -- -- 85
2021-02-13 00:00:00 4.5 9 Nordeste 35 Noroeste 0 -- -- 83
2021-02-12 23:00:00 5.5 26 Norte 31 Norte 0 -- -- 78
2021-02-12 22:00:00 5.3 6 Noroeste 24 Norte 0 -- -- 83
2021-02-12 21:00:00 5.6 3 Noroeste 33 Norte 0 -- -- 81
2021-02-12 20:00:00 6.6 22 Norte 32 Norte 0 -- -- 81
2021-02-12 19:00:00 7.8 17 Norte 37 Noroeste 0 -- -- 84
2021-02-12 18:00:00 9.6 23 Noroeste 49 Noroeste 0 -- -- 76
2021-02-12 17:00:00 9.6 36 Noroeste 52 Noroeste 0 -- -- 75
2021-02-12 16:00:00 9.5 38 Noroeste 53 Noroeste 0 -- -- 79
2021-02-12 15:00:00 8.6 35 Noroeste 49 Noroeste 0.2 -- -- 82
2021-02-12 14:00:00 7.7 35 Noroeste 53 Noroeste 0 -- -- 86
2021-02-12 13:00:00 7.2 31 Noroeste 51 Noroeste 0.2 -- -- 88
2021-02-12 12:00:00 7.5 30 Noroeste 44 Noroeste 0.2 -- -- 92
2021-02-12 11:00:00 7.6 26 Noroeste 36 Noroeste 0 -- -- 88
2021-02-12 10:00:00 7.2 21 Noroeste 44 Oeste 0 -- -- 91
2021-02-12 09:00:00 7.3 26 Noroeste 39 Noroeste 0.2 -- -- 92
2021-02-12 08:00:00 7.1 24 Oeste 37 Oeste 1 -- -- 91
2021-02-12 07:00:00 7.1 12 Noroeste 39 Oeste 0.8 -- -- 93
2021-02-12 06:00:00 8.8 27 Oeste 41 Sudoeste 0 -- -- 87
2021-02-12 05:00:00 8.4 28 Sudoeste 46 Sudoeste 0 -- -- 87
2021-02-12 04:00:00 8.9 28 Sudoeste 39 Sudoeste 0 -- -- 90
2021-02-12 03:00:00 9.1 15 Sudoeste 26 Oeste 0 -- -- 90
2021-02-12 02:00:00 8.1 13 Sur 24 Sudoeste 0 -- -- 94
2021-02-12 01:00:00 7.3 13 Sur 17 Sur 0 -- -- 96
2021-02-12 00:00:00 7.7 5 Sudoeste 15 Sur 0 -- -- 93
2021-02-11 23:00:00 8.4 6 Sur 12 Sur 0 -- -- 90
2021-02-11 22:00:00 8.5 6 Sur 26 Oeste 0 -- -- 91
2021-02-11 21:00:00 9 18 Oeste 29 Oeste 0 -- -- 90
2021-02-11 20:00:00 9 18 Oeste 30 Oeste 0 -- -- 88
2021-02-11 19:00:00 9.2 20 Oeste 33 Oeste 0 -- -- 88
2021-02-11 18:00:00 10.1 23 Oeste 31 Sudoeste 0 -- -- 82
2021-02-11 17:00:00 11.3 17 Oeste 27 Oeste 0 -- -- 78
2021-02-11 16:00:00 11.9 17 Oeste 24 Oeste 0 -- -- 79
2021-02-11 15:00:00 10.8 14 Noroeste 24 Oeste 0 -- -- 82
2021-02-11 14:00:00 9.9 14 Noroeste 26 Oeste 0 -- -- 86
2021-02-11 13:00:00 10.1 13 Noroeste 35 Oeste 0 -- -- 86
2021-02-11 12:00:00 9.4 20 Noroeste 34 Noroeste 0 -- -- 90
2021-02-11 11:00:00 6.3 7 Sudoeste 11 Sudoeste 0 -- -- 97
2021-02-11 10:00:00 5.3 3 Sudoeste 13 Noroeste 0 -- -- 98
2021-02-11 09:00:00 4.7 3 Sudoeste 16 Noroeste 0 -- -- 97
2021-02-11 08:00:00 4.3 6 Noroeste 12 Noroeste 0 -- -- 96
2021-02-11 07:00:00 4.3 0 Calma 18 Noroeste 0 -- -- 92
2021-02-11 06:00:00 4 11 Noroeste 27 Noroeste 0 -- -- 91
2021-02-11 05:00:00 4.3 13 Noroeste 26 Noroeste 0 -- -- 85
2021-02-11 04:00:00 3.9 12 Noroeste 18 Noroeste 0 -- -- 83
2021-02-11 03:00:00 3.6 4 Noroeste 18 Noroeste 0 -- -- 82
2021-02-11 02:00:00 3.6 4 Oeste 33 Noroeste 0 -- -- 83
2021-02-11 01:00:00 4 21 Noroeste 31 Noroeste 0 -- -- 80
2021-02-11 00:00:00 2.9 8 Este 13 Este 0 -- -- 85
2021-02-10 23:00:00 2.8 4 Noroeste 9 Noroeste 0 -- -- 86
2021-02-10 22:00:00 3.1 4 Norte 13 Nordeste 0 -- -- 82
2021-02-10 21:00:00 2.3 8 Noroeste 10 Norte 0 -- -- 88
2021-02-10 20:00:00 3.3 3 Sur 9 Norte 0 -- -- 83
2021-02-10 19:00:00 4.1 3 Nordeste 32 Noroeste 0 -- -- 80
2021-02-10 18:00:00 6.8 26 Noroeste 41 Noroeste 0 -- -- 64
2021-02-10 17:00:00 7.2 24 Noroeste 39 Noroeste 0 -- -- 64
2021-02-10 16:00:00 7.7 31 Noroeste 43 Noroeste 0 -- -- 61
2021-02-10 15:00:00 7 30 Noroeste 49 Noroeste 0 -- -- 62
2021-02-10 14:00:00 6.6 35 Noroeste 54 Noroeste 0 -- -- 65
2021-02-10 13:00:00 5.6 38 Noroeste 56 Noroeste 0 -- -- 71
2021-02-10 12:00:00 4.4 37 Noroeste 58 Noroeste 0 -- -- 79
2021-02-10 11:00:00 4.1 37 Noroeste 60 Noroeste 0 -- -- 84
2021-02-10 10:00:00 4 38 Noroeste 54 Noroeste 0.2 -- -- 86
2021-02-10 09:00:00 3 35 Noroeste 55 Noroeste 0 -- -- 89
2021-02-10 08:00:00 2.4 30 Noroeste 46 Noroeste 0 -- -- 90
2021-02-10 07:00:00 2.1 37 Noroeste 53 Noroeste 0 -- -- 89
2021-02-10 06:00:00 1.9 17 Noroeste 30 Sudoeste 1.2 -- -- 93
2021-02-10 05:00:00 0.8 16 Oeste 37 Oeste 1.4 -- -- 95
2021-02-10 04:00:00 2.8 17 Oeste 41 Noroeste 0.2 -- -- 93
2021-02-10 03:00:00 3 19 Noroeste 42 Oeste 0.2 -- -- 89
2021-02-10 02:00:00 1.9 18 Oeste 33 Oeste 1 -- -- 93
2021-02-10 01:00:00 2.5 13 Oeste 21 Oeste 0.8 -- -- 92
2021-02-10 00:00:00 2.7 10 Noroeste 22 Noroeste 0.2 -- -- 90
2021-02-09 23:00:00 0.9 2 Sudeste 12 Noroeste 0.2 -- -- 97
2021-02-09 22:00:00 0.5 8 Noroeste 33 Noroeste 2.2 -- -- 96
2021-02-09 21:00:00 2.2 23 Noroeste 36 Noroeste 0.8 -- -- 91
2021-02-09 20:00:00 2.8 6 Oeste 32 Noroeste 0 -- -- 88
2021-02-09 19:00:00 3.3 21 Noroeste 35 Noroeste 0 -- -- 86
2021-02-09 18:00:00 3.6 18 Noroeste 34 Noroeste 0 -- -- 88
2021-02-09 17:00:00 3.1 17 Noroeste 42 Noroeste 0.2 -- -- 90
2021-02-09 16:00:00 3.3 33 Noroeste 70 Sudoeste 1.4 -- -- 91
2021-02-09 15:00:00 7.4 50 Oeste 71 Oeste 0 -- -- 82
2021-02-09 14:00:00 7.1 47 Sudoeste 66 Sudoeste 0 -- -- 81
2021-02-09 13:00:00 6.9 40 Sudoeste 65 Sudoeste 0 -- -- 83
2021-02-09 12:00:00 6.4 41 Sudoeste 68 Sudoeste 0 -- -- 85
2021-02-09 11:00:00 5.8 40 Sudoeste 70 Sudoeste 0 -- -- 87
2021-02-09 10:00:00 4.6 38 Sudoeste 53 Sudoeste 0 -- -- 90
2021-02-09 09:00:00 3.1 36 Sudoeste 49 Sudoeste 0.2 -- -- 92
2021-02-09 08:00:00 2.7 22 Sudoeste 42 Sudoeste 0.2 -- -- 93
2021-02-09 07:00:00 2.8 22 Sudoeste 45 Sudoeste 0.4 -- -- 93
2021-02-09 06:00:00 3.6 22 Oeste 35 Sudoeste 0.2 -- -- 93
2021-02-09 05:00:00 3.9 22 Oeste 32 Oeste 0 -- -- 92
2021-02-09 04:00:00 4.2 19 Oeste 34 Oeste 0 -- -- 91
2021-02-09 03:00:00 4.5 17 Oeste 41 Oeste 0 -- -- 90
2021-02-09 02:00:00 4.7 24 Oeste 46 Oeste 0 -- -- 91
2021-02-09 01:00:00 4.4 20 Oeste 30 Oeste 0.2 -- -- 92
2021-02-09 00:00:00 4.6 24 Noroeste 37 Oeste 0 -- -- 87
2021-02-08 23:00:00 4.4 18 Noroeste 39 Oeste 0 -- -- 90
2021-02-08 22:00:00 4.2 17 Noroeste 36 Noroeste 0.4 -- -- 90
2021-02-08 21:00:00 4 19 Noroeste 39 Noroeste 0.2 -- -- 93
2021-02-08 20:00:00 4.2 22 Noroeste 34 Noroeste 0.2 -- -- 90
2021-02-08 19:00:00 3.9 26 Oeste 40 Oeste 0.6 -- -- 90
2021-02-08 18:00:00 4.5 20 Noroeste 41 Oeste 0 -- -- 89
2021-02-08 17:00:00 5.6 26 Noroeste 53 Oeste 0 -- -- 82
2021-02-08 16:00:00 5 35 Oeste 56 Oeste 0.4 -- -- 87
2021-02-08 15:00:00 6 31 Noroeste 50 Noroeste 0 -- -- 81
2021-02-08 14:00:00 5.5 33 Oeste 56 Oeste 0 -- -- 83
2021-02-08 13:00:00 5.8 31 Oeste 55 Oeste 0.2 -- -- 84
2021-02-08 12:00:00 4.5 26 Noroeste 55 Oeste 0 -- -- 87
2021-02-08 11:00:00 5.2 29 Oeste 44 Oeste 0 -- -- 84
2021-02-08 10:00:00 3.9 27 Oeste 45 Oeste 0 -- -- 88
2021-02-08 09:00:00 3.4 18 Oeste 36 Oeste 0 -- -- 93
2021-02-08 08:00:00 3.2 23 Sudoeste 39 Oeste 0 -- -- 91
2021-02-08 07:00:00 3.2 25 Oeste 48 Sudoeste 0 -- -- 90
2021-02-08 06:00:00 4.1 32 Sudoeste 45 Oeste 0 -- -- 90
2021-02-08 05:00:00 3.5 23 Oeste 39 Oeste 0.4 -- -- 92
2021-02-08 04:00:00 3.5 30 Oeste 46 Oeste 0.6 -- -- 94
2021-02-08 03:00:00 3.3 25 Oeste 35 Oeste 0.2 -- -- 96
2021-02-08 02:00:00 3.6 27 Oeste 37 Oeste 0.2 -- -- 95
2021-02-08 01:00:00 2.8 10 Oeste 24 Noroeste 0 -- -- 96
2021-02-08 00:00:00 2.4 18 Noroeste 36 Noroeste 0 -- -- 94
2021-02-07 23:00:00 2.3 24 Noroeste 37 Noroeste 0 -- -- 90
2021-02-07 22:00:00 2.4 23 Noroeste 42 Noroeste 0 -- -- 88
2021-02-07 21:00:00 3.1 22 Noroeste 33 Noroeste 0 -- -- 88
2021-02-07 20:00:00 3.7 18 Noroeste 31 Noroeste 0 -- -- 81
2021-02-07 19:00:00 4.6 21 Noroeste 36 Noroeste 0 -- -- 74
2021-02-07 18:00:00 5.1 21 Noroeste 33 Noroeste 0 -- -- 70
2021-02-07 17:00:00 5 25 Noroeste 45 Noroeste 0 -- -- 67
2021-02-07 16:00:00 5.3 23 Noroeste 37 Noroeste 0 -- -- 65
2021-02-07 15:00:00 5.6 26 Noroeste 38 Noroeste 0 -- -- 58
2021-02-07 14:00:00 5.6 20 Noroeste 34 Noroeste 0 -- -- 56
2021-02-07 13:00:00 5 19 Noroeste 33 Noroeste 0 -- -- 65
2021-02-07 12:00:00 3.3 16 Norte 26 Noroeste 0 -- -- 68
2021-02-07 11:00:00 2 19 Noroeste 24 Noroeste 0 -- -- 75
2021-02-07 10:00:00 0.8 13 Norte 21 Noroeste 0 -- -- 80
2021-02-07 09:00:00 0.6 13 Norte 20 Norte 0 -- -- 83
2021-02-07 08:00:00 -0.1 14 Noroeste 22 Norte 0 -- -- 85
2021-02-07 07:00:00 0.3 9 Norte 16 Nordeste 0 -- -- 83
2021-02-07 06:00:00 0.3 10 Nordeste 15 Nordeste 0 -- -- 84
2021-02-07 05:00:00 1.1 14 Nordeste 30 Nordeste 0 -- -- 82
2021-02-07 04:00:00 1.8 24 Nordeste 34 Nordeste 0 -- -- 78
2021-02-07 03:00:00 2 26 Nordeste 37 Nordeste 0 -- -- 81
2021-02-07 02:00:00 2.2 26 Nordeste 36 Nordeste 0 -- -- 83
2021-02-07 01:00:00 2.2 25 Nordeste 33 Nordeste 0 -- -- 84
2021-02-07 00:00:00 2.5 21 Nordeste 31 Nordeste 0 -- -- 88
2021-02-06 23:00:00 3 19 Nordeste 30 Nordeste 0 -- -- 87
2021-02-06 22:00:00 3.2 23 Nordeste 31 Nordeste 0 -- -- 87
2021-02-06 21:00:00 3.4 23 Nordeste 35 Nordeste 0 -- -- 87
2021-02-06 20:00:00 3.8 26 Nordeste 33 Nordeste 0 -- -- 87
2021-02-06 19:00:00 4.2 19 Nordeste 34 Nordeste 0 -- -- 86
2021-02-06 18:00:00 5 22 Nordeste 30 Nordeste 0 -- -- 84
2021-02-06 17:00:00 5.3 22 Nordeste 31 Nordeste 3.8 -- -- 86
2021-02-06 16:00:00 5.5 24 Norte 41 Norte 0.8 -- -- 87
2021-02-06 15:00:00 7.1 5 Sur 12 Sudoeste 0.2 -- -- 89
2021-02-06 14:00:00 7.1 5 Noroeste 36 Noroeste 2 -- -- 85
2021-02-06 13:00:00 9.1 21 Oeste 35 Oeste 0 -- -- 71
2021-02-06 12:00:00 8.1 22 Oeste 35 Oeste 0 -- -- 76
2021-02-06 11:00:00 7.6 24 Oeste 33 Oeste 0.2 -- -- 82
2021-02-06 10:00:00 7 18 Oeste 25 Oeste 0 -- -- 86
2021-02-06 09:00:00 6.3 7 Sur 13 Sur 0 -- -- 94
2021-02-06 08:00:00 5.6 10 Sur 17 Sur 0 -- -- 95
2021-02-06 07:00:00 5.6 12 Sur 16 Sur 0 -- -- 95
2021-02-06 06:00:00 5.6 6 Sur 9 Sur 0.2 -- -- 95
2021-02-06 05:00:00 5.7 5 Sur 12 Sudeste 0.2 -- -- 94
2021-02-06 04:00:00 5.7 2 Sur 16 Sur 0.2 -- -- 92
2021-02-06 03:00:00 5.9 12 Sudeste 14 Sur 0 -- -- 90
2021-02-06 02:00:00 6.1 7 Sudeste 44 Sudoeste 0 -- -- 90
2021-02-06 01:00:00 7.5 30 Sudoeste 43 Sudoeste 0 -- -- 86
2021-02-06 00:00:00 6.8 14 Sur 21 Sudeste 0 -- -- 90
2021-02-05 23:00:00 7.5 15 Sudeste 20 Sudeste 0 -- -- 87
2021-02-05 22:00:00 6.9 10 Sur 41 Sudeste 0 -- -- 91
2021-02-05 21:00:00 7.2 24 Sudeste 39 Sudeste 0 -- -- 91
2021-02-05 20:00:00 7.3 10 Sur 26 Sudeste 0 -- -- 92
2021-02-05 19:00:00 7.1 5 Sur 41 Sudeste 0 -- -- 92
2021-02-05 18:00:00 7.8 32 Sudeste 44 Sudeste 0 -- -- 87
2021-02-05 17:00:00 11.4 27 Sudeste 34 Sudeste 0 -- -- 69
2021-02-05 16:00:00 14.6 20 Sudeste 26 Sudeste 0 -- -- 57
2021-02-05 15:00:00 15.7 15 Sur 24 Sur 0 -- -- 50
2021-02-05 14:00:00 15.4 14 Sudoeste 33 Sur 0 -- -- 49
2021-02-05 13:00:00 14.3 22 Sur 41 Sur 0 -- -- 50
2021-02-05 12:00:00 13.5 29 Sur 43 Sur 0 -- -- 50
2021-02-05 11:00:00 12.9 15 Sudeste 27 Sudeste 0 -- -- 58
2021-02-05 10:00:00 10.1 2 Noroeste 8 Nordeste 0 -- -- 69
2021-02-05 09:00:00 6.4 6 Nordeste 10 Nordeste 0 -- -- 82
2021-02-05 08:00:00 5.2 9 Nordeste 13 Este 0 -- -- 86
2021-02-05 07:00:00 7.4 3 Sudeste 13 Sudeste 0 -- -- 79
2021-02-05 06:00:00 8.3 3 Sur 25 Sudeste 0 -- -- 75
2021-02-05 05:00:00 7.7 14 Sudeste 19 Sudeste 0 -- -- 79
2021-02-05 04:00:00 7.6 11 Sudeste 18 Sudeste 0 -- -- 80
2021-02-05 03:00:00 6.3 6 Este 15 Norte 0 -- -- 85
2021-02-05 02:00:00 5.9 5 Nordeste 12 Norte 0 -- -- 89
2021-02-05 01:00:00 6.3 3 Norte 14 Norte 0 -- -- 88
2021-02-05 00:00:00 6.3 0 Calma 16 Sudeste 0 -- -- 88
2021-02-04 23:00:00 6.9 13 Sudeste 17 Sudeste 0 -- -- 85
2021-02-04 22:00:00 7.5 4 Oeste 13 Oeste 0 -- -- 81
2021-02-04 21:00:00 8.4 9 Sudoeste 19 Oeste 0 -- -- 80
2021-02-04 20:00:00 9.9 10 Noroeste 19 Sudoeste 0 -- -- 76
2021-02-04 19:00:00 11.2 15 Sudoeste 32 Sudoeste 0 -- -- 66
2021-02-04 18:00:00 12.3 24 Sudoeste 36 Sudoeste 0 -- -- 59
2021-02-04 17:00:00 13.9 25 Sudoeste 38 Sudoeste 0 -- -- 49
2021-02-04 16:00:00 14.9 19 Sur 29 Sur 0 -- -- 55
2021-02-04 15:00:00 14.2 21 Sur 28 Sur 0 -- -- 58
2021-02-04 14:00:00 13.5 15 Sur 33 Sur 0 -- -- 61
2021-02-04 13:00:00 12.4 22 Sur 33 Sur 0 -- -- 67
2021-02-04 12:00:00 11.5 17 Sur 23 Sur 0 -- -- 76
2021-02-04 11:00:00 10.2 11 Sur 18 Sur 0 -- -- 85
2021-02-04 10:00:00 9.3 10 Sur 14 Sur 0 -- -- 93
2021-02-04 09:00:00 7.5 10 Sur 14 Sur 0 -- -- 97
2021-02-04 08:00:00 7.3 12 Sur 15 Sudeste 0 -- -- 98
2021-02-04 07:00:00 6.9 9 Sur 18 Sur 0 -- -- 97
2021-02-04 06:00:00 7.3 15 Sur 27 Sudoeste 0 -- -- 97
2021-02-04 05:00:00 7.7 22 Sudoeste 35 Sur 0 -- -- 97
2021-02-04 04:00:00 7.7 26 Sur 36 Sudoeste 0 -- -- 96
2021-02-04 03:00:00 8.4 27 Sudoeste 34 Sudoeste 0 -- -- 90
2021-02-04 02:00:00 8.3 27 Sudoeste 32 Sudoeste 0 -- -- 89
2021-02-04 01:00:00 8.5 21 Sudoeste 33 Sudoeste 0 -- -- 90
2021-02-04 00:00:00 8.4 21 Sur 30 Sur 0 -- -- 91
2021-02-03 23:00:00 7.9 12 Sur 15 Sur 0 -- -- 92
2021-02-03 22:00:00 8.1 8 Sudoeste 32 Oeste 0 -- -- 89
2021-02-03 21:00:00 7.6 16 Sudoeste 25 Sudoeste 0 -- -- 88
2021-02-03 20:00:00 8.1 14 Sudoeste 23 Oeste 0 -- -- 86
2021-02-03 19:00:00 8.5 16 Sudoeste 35 Sudoeste 0 -- -- 85
2021-02-03 18:00:00 10.3 20 Oeste 36 Sudoeste 0 -- -- 76
2021-02-03 17:00:00 10.1 23 Oeste 41 Oeste 0 -- -- 77
2021-02-03 16:00:00 10 26 Sudoeste 40 Oeste 0 -- -- 79
2021-02-03 15:00:00 9.7 28 Oeste 42 Oeste 0 -- -- 78
2021-02-03 14:00:00 10.6 33 Oeste 46 Oeste 0 -- -- 75
2021-02-03 13:00:00 9.8 33 Oeste 49 Oeste 0 -- -- 78
2021-02-03 12:00:00 9.3 32 Oeste 48 Oeste 0 -- -- 79
2021-02-03 11:00:00 8.9 30 Sudoeste 42 Sudoeste 0 -- -- 80
2021-02-03 10:00:00 7.1 30 Sudoeste 41 Oeste 0 -- -- 85
2021-02-03 09:00:00 6.3 23 Sudoeste 39 Sudoeste 0 -- -- 88
2021-02-03 08:00:00 6 26 Sudoeste 40 Sudoeste 0 -- -- 88
2021-02-03 07:00:00 5.8 22 Sudoeste 31 Sudoeste 0 -- -- 87
2021-02-03 06:00:00 5.7 22 Sudoeste 37 Sudoeste 0 -- -- 85
2021-02-03 05:00:00 5.9 13 Oeste 33 Oeste 0 -- -- 83
2021-02-03 04:00:00 6.3 25 Oeste 45 Oeste 0 -- -- 83
2021-02-03 03:00:00 7.1 29 Sudoeste 49 Oeste 0 -- -- 81
2021-02-03 02:00:00 7.8 27 Oeste 55 Oeste 0 -- -- 84
2021-02-03 01:00:00 8.2 27 Oeste 46 Oeste 0 -- -- 84
2021-02-03 00:00:00 7.7 28 Oeste 45 Oeste 0 -- -- 82
2021-02-02 23:00:00 7.9 30 Oeste 46 Oeste 0 -- -- 81
2021-02-02 22:00:00 8.5 21 Oeste 39 Sudoeste 0 -- -- 82
2021-02-02 21:00:00 8.7 15 Sudoeste 29 Sudoeste 0 -- -- 83
2021-02-02 20:00:00 7.1 16 Sur 23 Sudoeste 0 -- -- 90
2021-02-02 19:00:00 8 19 Sudoeste 29 Sudoeste 0 -- -- 86
2021-02-02 18:00:00 9.3 24 Oeste 39 Oeste 0 -- -- 79
2021-02-02 17:00:00 10.8 27 Oeste 36 Sudoeste 0 -- -- 73
2021-02-02 16:00:00 11.9 23 Sudoeste 33 Sudoeste 0 -- -- 71
2021-02-02 15:00:00 11.3 21 Oeste 33 Oeste 0 -- -- 73
2021-02-02 14:00:00 11.6 24 Oeste 33 Oeste 0 -- -- 73
2021-02-02 13:00:00 11 24 Oeste 33 Oeste 0 -- -- 77
2021-02-02 12:00:00 9.8 22 Oeste 37 Oeste 0 -- -- 83
2021-02-02 11:00:00 8.5 14 Oeste 28 Oeste 0 -- -- 87
2021-02-02 10:00:00 8.7 17 Oeste 28 Oeste 0 -- -- 88
2021-02-02 09:00:00 8.6 14 Noroeste 31 Noroeste 0 -- -- 88
2021-02-02 08:00:00 8.3 15 Noroeste 25 Noroeste 0 -- -- 89
2021-02-02 07:00:00 8.5 16 Noroeste 32 Noroeste 0 -- -- 89
2021-02-02 06:00:00 8.2 14 Noroeste 36 Noroeste 0 -- -- 91
2021-02-02 05:00:00 8 20 Noroeste 40 Noroeste 0 -- -- 93
2021-02-02 04:00:00 7.5 10 Noroeste 28 Norte 0 -- -- 92
2021-02-02 03:00:00 8 11 Noroeste 26 Oeste 0 -- -- 86
2021-02-02 02:00:00 8 15 Noroeste 36 Noroeste 0 -- -- 84
2021-02-02 01:00:00 8 26 Noroeste 45 Noroeste 0 -- -- 84
2021-02-02 00:00:00 8 22 Noroeste 38 Noroeste 0 -- -- 85
2021-02-01 23:00:00 7.5 20 Noroeste 40 Noroeste 0 -- -- 86
2021-02-01 22:00:00 7.8 18 Noroeste 34 Noroeste 0 -- -- 83
2021-02-01 21:00:00 8.4 24 Noroeste 38 Noroeste 0 -- -- 80
2021-02-01 20:00:00 9 28 Noroeste 44 Noroeste 0 -- -- 77
2021-02-01 19:00:00 9.3 23 Noroeste 45 Noroeste 0 -- -- 76
2021-02-01 18:00:00 9.7 33 Noroeste 46 Noroeste 0 -- -- 74
2021-02-01 17:00:00 10.2 30 Noroeste 51 Noroeste 0 -- -- 73
2021-02-01 16:00:00 11.3 39 Noroeste 56 Noroeste 0 -- -- 70
2021-02-01 15:00:00 10.7 36 Noroeste 68 Noroeste 0 -- -- 73
2021-02-01 14:00:00 10.3 42 Noroeste 64 Noroeste 0 -- -- 73
2021-02-01 13:00:00 8.5 42 Noroeste 61 Noroeste 0 -- -- 79
2021-02-01 12:00:00 8 40 Noroeste 63 Noroeste 0 -- -- 80
2021-02-01 11:00:00 7.8 44 Noroeste 77 Noroeste 0 -- -- 78
2021-02-01 10:00:00 7.5 53 Noroeste 75 Noroeste 0 -- -- 77
2021-02-01 09:00:00 6.8 49 Noroeste 74 Noroeste 0 -- -- 79
2021-02-01 08:00:00 6.7 48 Noroeste 73 Noroeste 0 -- -- 79
2021-02-01 07:00:00 6.8 47 Noroeste 72 Noroeste 0 -- -- 78
2021-02-01 06:00:00 7.1 47 Noroeste 68 Noroeste 0 -- -- 77
2021-02-01 05:00:00 7.3 48 Noroeste 70 Noroeste 0 -- -- 77
2021-02-01 04:00:00 7.4 44 Noroeste 66 Noroeste 0 -- -- 77
2021-02-01 03:00:00 7.9 48 Noroeste 72 Noroeste 0 -- -- 76
2021-02-01 02:00:00 8.5 48 Noroeste 73 Noroeste 0 -- -- 75
2021-02-01 01:00:00 8.8 39 Noroeste 59 Norte 0 -- -- 78
2021-02-01 00:00:00 8.9 39 Noroeste 61 Noroeste 0 -- -- 78
2021-01-31 23:00:00 9.5 38 Noroeste 60 Noroeste 0 -- -- 78
2021-01-31 22:00:00 9.9 40 Noroeste 63 Noroeste 0 -- -- 76
2021-01-31 21:00:00 9.9 32 Noroeste 54 Noroeste 0 -- -- 81
2021-01-31 20:00:00 9.6 28 Oeste 53 Noroeste 0 -- -- 86
2021-01-31 19:00:00 9.8 29 Noroeste 45 Noroeste 0 -- -- 86
2021-01-31 18:00:00 9.1 21 Noroeste 51 Noroeste 0 -- -- 91
2021-01-31 17:00:00 9.1 29 Noroeste 45 Noroeste 0 -- -- 90
2021-01-31 16:00:00 8.5 25 Noroeste 53 Noroeste 0 -- -- 94
2021-01-31 15:00:00 8.7 35 Noroeste 56 Noroeste 0 -- -- 89
2021-01-31 14:00:00 8.6 35 Noroeste 51 Noroeste 0 -- -- 86
2021-01-31 13:00:00 7 30 Noroeste 48 Noroeste 0 -- -- 90
2021-01-31 12:00:00 6.6 30 Noroeste 53 Norte 0 -- -- 87
2021-01-31 11:00:00 5.3 41 Norte 59 Noroeste 0 -- -- 90
2021-01-31 10:00:00 4.8 39 Norte 57 Noroeste 0 -- -- 86
2021-01-31 09:00:00 4.5 38 Noroeste 56 Noroeste 0 -- -- 84
2021-01-31 08:00:00 4.3 37 Noroeste 53 Noroeste 0 -- -- 84
2021-01-31 07:00:00 4.3 33 Noroeste 50 Norte 0 -- -- 83
2021-01-31 06:00:00 4.3 33 Noroeste 49 Noroeste 0 -- -- 84
2021-01-31 05:00:00 4.4 39 Noroeste 55 Noroeste 0 -- -- 85
2021-01-31 04:00:00 4.1 33 Noroeste 47 Noroeste 0 -- -- 86
2021-01-31 03:00:00 4.2 30 Noroeste 56 Noroeste 0 -- -- 84
2021-01-31 02:00:00 4.1 36 Noroeste 61 Noroeste 0 -- -- 84
2021-01-31 01:00:00 4 33 Noroeste 60 Noroeste 0 -- -- 86
2021-01-31 00:00:00 3.9 35 Noroeste 61 Noroeste 0 -- -- 86
2021-01-30 23:00:00 3.9 35 Noroeste 55 Noroeste 0 -- -- 88
2021-01-30 22:00:00 4 23 Noroeste 49 Noroeste 0.4 -- -- 88
2021-01-30 21:00:00 4.4 21 Noroeste 47 Noroeste 0 -- -- 90
2021-01-30 20:00:00 4.6 26 Noroeste 51 Noroeste 0.4 -- -- 87
2021-01-30 19:00:00 4.3 21 Noroeste 51 Noroeste 0 -- -- 89
2021-01-30 18:00:00 4.9 23 Noroeste 54 Noroeste 0.2 -- -- 85
2021-01-30 17:00:00 5.1 39 Noroeste 66 Noroeste 0.2 -- -- 85
2021-01-30 16:00:00 6 45 Noroeste 76 Oeste 0 -- -- 77
2021-01-30 15:00:00 7.5 47 Noroeste 71 Noroeste 0 -- -- 65
2021-01-30 14:00:00 8.3 39 Noroeste 70 Noroeste 0 -- -- 61
2021-01-30 13:00:00 7.1 48 Noroeste 78 Noroeste 0.2 -- -- 73
2021-01-30 12:00:00 7 44 Noroeste 77 Noroeste 0 -- -- 78
2021-01-30 11:00:00 7.3 28 Noroeste 64 Noroeste 0 -- -- 78
2021-01-30 10:00:00 6.7 28 Noroeste 49 Noroeste 0 -- -- 84
2021-01-30 09:00:00 5.9 27 Noroeste 49 Noroeste 0 -- -- 89
2021-01-30 08:00:00 6.7 30 Oeste 47 Oeste 0 -- -- 83
2021-01-30 07:00:00 5.5 32 Noroeste 66 Noroeste 2.2 -- -- 89
2021-01-30 06:00:00 7.3 22 Oeste 30 Oeste 0 -- -- 91
2021-01-30 05:00:00 7.5 15 Oeste 32 Oeste 0 -- -- 90
2021-01-30 04:00:00 7.4 21 Oeste 39 Oeste 0 -- -- 92
2021-01-30 03:00:00 7.5 26 Oeste 33 Oeste 0 -- -- 93
2021-01-30 02:00:00 6.9 13 Oeste 23 Oeste 0 -- -- 95
2021-01-30 01:00:00 6 14 Oeste 26 Oeste 0 -- -- 96
2021-01-30 00:00:00 5.4 14 Sudoeste 21 Sudoeste 0 -- -- 97